Time;durP1;ratioP1;P1;durP2;ratioP2;P2;SDS_P1;SDS_P2;PMS_P1;PMS_P2;Temp;Humidity;BMP_temperature;BMP_pressure;BME280_temperature;BME280_humidity;BME280_pressure;Samples;Min_cycle;Max_cycle;Signal;HPM_P1;HPM_P2
2024/01/07 00:00:14;;;;;;;18.03;11.00;;;2.90;99.90;;;;;;5069527;28;20452;-84
2024/01/07 00:02:41;;;;;;;20.20;12.63;;;2.80;99.90;;;;;;5066089;28;20523;-83
2024/01/07 00:05:09;;;;;;;18.17;11.23;;;2.90;99.90;;;;;;5064041;28;20515;-83
2024/01/07 00:07:36;;;;;;;15.87;10.63;;;2.90;99.90;;;;;;5060626;28;20459;-84
2024/01/07 00:10:03;;;;;;;16.13;10.83;;;2.90;99.90;;;;;;5074150;28;20455;-82
2024/01/07 00:12:33;;;;;;;17.50;10.87;;;2.90;99.90;;;;;;5067711;28;20487;-83
2024/01/07 00:15:00;;;;;;;21.33;12.07;;;3.00;99.90;;;;;;5085190;28;20498;-83
2024/01/07 00:17:27;;;;;;;18.43;11.53;;;3.00;99.90;;;;;;5080434;28;20513;-83
2024/01/07 00:19:53;;;;;;;17.13;10.67;;;3.00;99.90;;;;;;5077041;28;20486;-83
2024/01/07 00:22:21;;;;;;;19.17;11.57;;;3.10;99.90;;;;;;5063914;28;20478;-84
2024/01/07 00:24:48;;;;;;;19.10;12.57;;;3.10;99.90;;;;;;5056916;28;20510;-84
2024/01/07 00:27:15;;;;;;;15.47;10.63;;;3.00;99.90;;;;;;5067087;28;20475;-84
2024/01/07 00:29:42;;;;;;;16.83;11.20;;;3.10;99.90;;;;;;5068024;28;20479;-84
2024/01/07 00:32:09;;;;;;;17.83;11.80;;;3.10;99.90;;;;;;5068666;28;20498;-82
2024/01/07 00:34:35;;;;;;;15.20;9.90;;;3.10;99.90;;;;;;5064553;28;20520;-83
2024/01/07 00:37:02;;;;;;;23.20;12.10;;;2.90;99.90;;;;;;5066542;28;20479;-83
2024/01/07 00:39:30;;;;;;;19.50;12.97;;;2.80;99.90;;;;;;5076303;28;20456;-83
2024/01/07 00:41:57;;;;;;;20.80;12.60;;;2.70;99.90;;;;;;5064499;28;20677;-82
2024/01/07 00:44:24;;;;;;;20.10;12.90;;;2.70;99.90;;;;;;5074914;28;20519;-82
2024/01/07 00:46:51;;;;;;;16.77;11.20;;;2.70;99.90;;;;;;5058291;28;20457;-83
2024/01/07 00:49:18;;;;;;;20.80;12.13;;;2.80;99.90;;;;;;5066893;28;20453;-83
2024/01/07 00:51:45;;;;;;;18.73;11.00;;;2.80;99.90;;;;;;5068875;28;20529;-81
2024/01/07 00:54:11;;;;;;;19.30;12.13;;;2.80;99.90;;;;;;5064559;28;20495;-82
2024/01/07 00:56:39;;;;;;;21.23;12.67;;;2.90;99.90;;;;;;5065371;28;20448;-82
2024/01/07 00:59:06;;;;;;;15.47;10.50;;;3.00;99.90;;;;;;5066258;28;20483;-80
2024/01/07 01:01:33;;;;;;;18.70;11.90;;;3.00;99.90;;;;;;5062993;28;20444;-80
2024/01/07 01:04:00;;;;;;;20.60;11.77;;;3.00;99.90;;;;;;5063973;28;20460;-82
2024/01/07 01:06:27;;;;;;;17.13;10.63;;;2.80;99.90;;;;;;5065006;28;20545;-83
2024/01/07 01:08:53;;;;;;;15.80;10.37;;;2.80;99.90;;;;;;5062947;28;20551;-82
2024/01/07 01:11:20;;;;;;;19.10;11.83;;;2.80;99.90;;;;;;5064697;28;21020;-83
2024/01/07 01:13:49;;;;;;;20.70;12.33;;;2.80;99.90;;;;;;5054864;28;20473;-83
2024/01/07 01:16:15;;;;;;;20.27;12.17;;;2.80;99.90;;;;;;5067983;28;20496;-82
2024/01/07 01:18:42;;;;;;;19.53;11.50;;;2.90;99.90;;;;;;5063103;28;20456;-83
2024/01/07 01:21:10;;;;;;;18.43;13.03;;;2.80;99.90;;;;;;5059968;28;20445;-82
2024/01/07 01:23:36;;;;;;;20.23;12.90;;;2.70;99.90;;;;;;5062077;28;20473;-82
2024/01/07 01:26:03;;;;;;;19.10;12.83;;;2.80;99.90;;;;;;5072730;28;20448;-84
2024/01/07 01:28:30;;;;;;;20.87;12.97;;;2.70;99.90;;;;;;5072654;28;20497;-83
2024/01/07 01:30:58;;;;;;;17.60;11.67;;;2.70;99.90;;;;;;5073575;28;20519;-83
2024/01/07 01:33:25;;;;;;;17.83;11.90;;;2.60;99.90;;;;;;5072836;28;20495;-84
2024/01/07 01:35:52;;;;;;;19.07;12.70;;;2.70;99.90;;;;;;5073753;28;20455;-83
2024/01/07 01:38:19;;;;;;;22.37;12.97;;;2.80;99.90;;;;;;5067297;28;20460;-84
2024/01/07 01:40:52;;;;;;;21.07;12.27;;;2.80;99.90;;;;;;5063242;28;20466;-84
2024/01/07 01:43:24;;;;;;;18.10;11.90;;;2.70;99.90;;;;;;5071094;28;20535;-83
2024/01/07 01:45:51;;;;;;;20.73;12.57;;;2.80;99.90;;;;;;5056280;28;20460;-84
2024/01/07 01:48:19;;;;;;;19.20;11.90;;;2.80;99.90;;;;;;5061733;28;20536;-83
2024/01/07 01:50:47;;;;;;;18.40;10.77;;;2.80;99.90;;;;;;5052461;28;20486;-83
2024/01/07 01:53:14;;;;;;;17.93;11.23;;;2.80;99.90;;;;;;5060874;28;20488;-83
2024/01/07 01:55:42;;;;;;;15.57;10.53;;;2.70;99.90;;;;;;5060608;28;20551;-84
2024/01/07 01:58:10;;;;;;;21.07;12.53;;;2.80;99.90;;;;;;5060843;28;20534;-83
2024/01/07 02:00:37;;;;;;;18.97;11.80;;;2.80;99.90;;;;;;5059869;28;20454;-84
2024/01/07 02:03:04;;;;;;;18.97;12.07;;;2.70;99.90;;;;;;5059583;28;20476;-83
2024/01/07 02:05:32;;;;;;;17.80;12.33;;;2.70;99.90;;;;;;5059615;28;20536;-83
2024/01/07 02:08:00;;;;;;;19.90;12.50;;;2.70;99.90;;;;;;5059918;28;20448;-83
2024/01/07 02:10:28;;;;;;;21.40;13.40;;;2.60;99.90;;;;;;5059431;28;20891;-83
2024/01/07 02:12:55;;;;;;;20.60;12.27;;;2.60;99.90;;;;;;5058829;28;20491;-83
2024/01/07 02:15:22;;;;;;;21.20;12.30;;;2.60;99.90;;;;;;5059864;28;20452;-83
2024/01/07 02:17:49;;;;;;;19.20;11.80;;;2.60;99.90;;;;;;5059217;28;20454;-83
2024/01/07 02:20:16;;;;;;;17.03;9.83;;;2.60;99.90;;;;;;5059303;28;20481;-84
2024/01/07 02:22:44;;;;;;;18.57;11.70;;;2.70;99.90;;;;;;5058689;28;20883;-83
2024/01/07 02:25:12;;;;;;;19.60;12.70;;;2.60;99.90;;;;;;5058311;28;20456;-83
2024/01/07 02:27:39;;;;;;;20.03;12.60;;;2.50;99.90;;;;;;5068069;28;20987;-83
2024/01/07 02:30:07;;;;;;;19.87;13.50;;;2.50;99.90;;;;;;5058376;28;20454;-83
2024/01/07 02:32:35;;;;;;;20.73;12.10;;;2.30;99.90;;;;;;5056385;28;20560;-83
2024/01/07 02:35:02;;;;;;;20.03;12.97;;;2.20;99.90;;;;;;5056932;28;20464;-83
2024/01/07 02:37:29;;;;;;;20.10;13.67;;;2.10;99.90;;;;;;5057200;28;20537;-83
2024/01/07 02:39:56;;;;;;;22.57;14.50;;;2.20;99.90;;;;;;5056953;28;20906;-80
2024/01/07 02:42:24;;;;;;;21.23;12.90;;;2.20;99.90;;;;;;5056900;28;20488;-82
2024/01/07 02:44:51;;;;;;;23.07;13.87;;;2.20;99.90;;;;;;5056970;28;20451;-82
2024/01/07 02:47:18;;;;;;;22.03;13.40;;;2.30;99.90;;;;;;5056481;28;20468;-83
2024/01/07 02:49:44;;;;;;;21.60;13.47;;;2.20;99.90;;;;;;5056089;28;20452;-81
2024/01/07 02:52:11;;;;;;;24.13;15.40;;;2.30;99.90;;;;;;5056205;28;20494;-81
2024/01/07 02:54:38;;;;;;;20.77;12.90;;;2.40;99.90;;;;;;5055604;28;20453;-83
2024/01/07 02:57:05;;;;;;;21.90;13.70;;;2.50;99.90;;;;;;5056133;28;20525;-82
2024/01/07 02:59:34;;;;;;;21.40;13.80;;;2.30;99.90;;;;;;5057058;28;20834;-83
2024/01/07 03:02:01;;;;;;;19.97;12.77;;;2.20;99.90;;;;;;5056295;28;20506;-83
2024/01/07 03:04:27;;;;;;;20.93;13.40;;;2.30;99.90;;;;;;5055576;28;20974;-83
2024/01/07 03:06:54;;;;;;;20.37;14.60;;;2.30;99.90;;;;;;5055419;28;20452;-82
2024/01/07 03:09:21;;;;;;;18.70;12.07;;;2.30;99.90;;;;;;5056132;28;20456;-82
2024/01/07 03:11:48;;;;;;;20.00;14.17;;;2.30;99.90;;;;;;5063915;28;21077;-82
2024/01/07 03:14:16;;;;;;;19.83;13.00;;;2.30;99.90;;;;;;5055540;28;20448;-81
2024/01/07 03:16:44;;;;;;;17.57;13.33;;;2.30;99.90;;;;;;5055565;28;20456;-81
2024/01/07 03:19:11;;;;;;;16.33;12.10;;;2.30;99.90;;;;;;5054848;28;20834;-80
2024/01/07 03:21:38;;;;;;;16.27;11.87;;;2.40;99.90;;;;;;5055392;28;20463;-82
2024/01/07 03:24:05;;;;;;;16.53;10.90;;;2.40;99.90;;;;;;5055708;28;20849;-84
2024/01/07 03:26:33;;;;;;;15.47;10.83;;;2.40;99.90;;;;;;5056001;28;20472;-83
2024/01/07 03:29:01;;;;;;;16.23;11.63;;;2.50;99.90;;;;;;5055235;28;20459;-84
2024/01/07 03:31:28;;;;;;;15.80;10.83;;;2.50;99.90;;;;;;5055576;28;20463;-84
2024/01/07 03:33:56;;;;;;;15.03;11.30;;;2.50;99.90;;;;;;5058314;28;21035;-83
2024/01/07 03:36:23;;;;;;;13.80;10.20;;;2.40;99.90;;;;;;5055555;28;20448;-84
2024/01/07 03:38:50;;;;;;;18.87;12.70;;;2.40;99.90;;;;;;5055914;28;20952;-83
2024/01/07 03:41:20;;;;;;;18.23;12.13;;;2.20;99.90;;;;;;5056035;28;20444;-84
2024/01/07 03:43:50;;;;;;;19.00;12.20;;;2.30;99.90;;;;;;5047569;28;20975;-84
2024/01/07 03:46:18;;;;;;;16.43;11.80;;;2.40;99.90;;;;;;5055044;28;20847;-84
2024/01/07 03:48:46;;;;;;;19.90;13.80;;;2.40;99.90;;;;;;5055357;28;20461;-82
2024/01/07 03:51:14;;;;;;;16.70;12.30;;;2.30;99.90;;;;;;5055008;28;20475;-83
2024/01/07 03:53:41;;;;;;;15.83;11.20;;;2.30;99.90;;;;;;5054004;28;20497;-83
2024/01/07 03:56:07;;;;;;;17.80;11.53;;;2.30;99.90;;;;;;5054738;28;20582;-82
2024/01/07 03:58:35;;;;;;;16.83;11.40;;;2.20;99.90;;;;;;5055820;28;20462;-82
2024/01/07 04:01:02;;;;;;;17.67;11.87;;;2.20;99.90;;;;;;5055713;28;20453;-83
2024/01/07 04:03:29;;;;;;;15.00;10.53;;;2.20;99.90;;;;;;5056309;28;20473;-83
2024/01/07 04:05:55;;;;;;;17.07;12.53;;;2.10;99.90;;;;;;5056166;28;20456;-84
2024/01/07 04:08:23;;;;;;;16.37;10.30;;;2.10;99.90;;;;;;5056055;28;20992;-83
2024/01/07 04:10:50;;;;;;;17.63;11.10;;;1.90;99.90;;;;;;5055924;28;20478;-84
2024/01/07 04:13:17;;;;;;;15.63;11.27;;;2.10;99.90;;;;;;5055553;28;20486;-82
2024/01/07 04:15:44;;;;;;;17.70;10.13;;;2.10;99.90;;;;;;5056753;28;20462;-83
2024/01/07 04:18:11;;;;;;;17.20;11.40;;;1.90;99.90;;;;;;5056480;28;20844;-84
2024/01/07 04:20:38;;;;;;;17.47;11.03;;;1.90;99.90;;;;;;5055309;28;20456;-84
2024/01/07 04:23:05;;;;;;;19.30;12.53;;;2.00;99.90;;;;;;5055155;28;20486;-84
2024/01/07 04:25:33;;;;;;;17.67;11.43;;;2.00;99.90;;;;;;5054890;28;20462;-83
2024/01/07 04:28:00;;;;;;;15.20;10.90;;;2.00;99.90;;;;;;5055038;28;20441;-83
2024/01/07 04:30:27;;;;;;;17.30;13.17;;;2.10;99.90;;;;;;5054918;28;20527;-84
2024/01/07 04:32:54;;;;;;;15.87;11.30;;;2.10;99.90;;;;;;5055647;28;20564;-82
2024/01/07 04:35:21;;;;;;;18.73;12.27;;;2.00;99.90;;;;;;5055786;28;20457;-82
2024/01/07 04:37:47;;;;;;;20.40;12.00;;;1.90;99.90;;;;;;5056916;28;20492;-82
2024/01/07 04:40:15;;;;;;;17.23;12.30;;;1.80;99.90;;;;;;5055296;28;20977;-84
2024/01/07 04:42:43;;;;;;;18.40;12.17;;;1.90;99.90;;;;;;5056202;28;20486;-82
2024/01/07 04:45:10;;;;;;;19.10;12.60;;;1.90;99.90;;;;;;5056731;28;20423;-83
2024/01/07 04:47:37;;;;;;;17.17;12.80;;;1.90;99.90;;;;;;5054492;28;20534;-83
2024/01/07 04:50:04;;;;;;;18.60;12.23;;;1.90;99.90;;;;;;5056950;28;20456;-83
2024/01/07 04:52:31;;;;;;;21.50;13.23;;;1.90;99.90;;;;;;5058229;28;20562;-82
2024/01/07 04:54:58;;;;;;;18.40;11.43;;;2.00;99.90;;;;;;5057512;28;20460;-82
2024/01/07 04:57:25;;;;;;;20.13;12.60;;;2.10;99.90;;;;;;5058156;28;20547;-83
2024/01/07 04:59:53;;;;;;;17.13;12.10;;;2.10;99.90;;;;;;5058925;28;20544;-84
2024/01/07 05:02:20;;;;;;;13.90;10.50;;;2.30;99.90;;;;;;5060021;28;20485;-83
2024/01/07 05:04:47;;;;;;;16.20;10.90;;;2.30;99.90;;;;;;5052608;28;20532;-84
2024/01/07 05:07:14;;;;;;;17.10;10.70;;;2.20;99.90;;;;;;5059712;28;20465;-84
2024/01/07 05:09:40;;;;;;;17.10;11.93;;;2.20;99.90;;;;;;5059195;28;20459;-84
2024/01/07 05:12:07;;;;;;;16.27;11.60;;;2.20;99.90;;;;;;5059837;28;20491;-84
2024/01/07 05:14:34;;;;;;;17.03;11.90;;;2.20;99.90;;;;;;5060185;28;20521;-83
2024/01/07 05:17:02;;;;;;;18.40;11.50;;;2.20;99.90;;;;;;5059429;28;20458;-84
2024/01/07 05:19:29;;;;;;;17.37;11.23;;;2.20;99.90;;;;;;5059623;28;20477;-83
2024/01/07 05:21:56;;;;;;;17.00;10.40;;;2.30;99.90;;;;;;5058882;28;20480;-83
2024/01/07 05:24:23;;;;;;;15.47;11.63;;;2.20;99.90;;;;;;5059114;28;20455;-83
2024/01/07 05:26:50;;;;;;;19.13;11.93;;;2.20;99.90;;;;;;5058968;28;20460;-84
2024/01/07 05:29:17;;;;;;;14.70;10.80;;;2.10;99.90;;;;;;5059614;28;20460;-85
2024/01/07 05:31:44;;;;;;;19.10;11.60;;;2.00;99.90;;;;;;5058972;28;20480;-83
2024/01/07 05:34:12;;;;;;;14.63;10.50;;;2.00;99.90;;;;;;5059789;28;20484;-83
2024/01/07 05:36:39;;;;;;;17.37;11.37;;;2.00;99.90;;;;;;5059047;28;20467;-84
2024/01/07 05:39:06;;;;;;;18.07;12.17;;;1.90;99.90;;;;;;5058989;28;20459;-83
2024/01/07 05:41:34;;;;;;;16.43;11.00;;;2.00;99.90;;;;;;5060173;28;20463;-83
2024/01/07 05:44:00;;;;;;;14.80;10.10;;;2.00;99.90;;;;;;5065256;28;20538;-84
2024/01/07 05:46:27;;;;;;;19.33;11.97;;;2.00;99.90;;;;;;5058988;28;20462;-84
2024/01/07 05:48:54;;;;;;;17.47;11.83;;;2.00;99.90;;;;;;5058216;28;20535;-82
2024/01/07 05:51:22;;;;;;;16.30;11.50;;;1.90;99.90;;;;;;5065920;28;20544;-82
2024/01/07 05:53:49;;;;;;;19.20;12.30;;;2.00;99.90;;;;;;5050412;28;20859;-83
2024/01/07 05:56:16;;;;;;;17.47;11.30;;;1.90;99.90;;;;;;5059549;28;20458;-82
2024/01/07 05:58:42;;;;;;;17.70;13.13;;;1.90;99.90;;;;;;5058340;28;20534;-83
2024/01/07 06:01:09;;;;;;;17.50;11.97;;;1.80;99.90;;;;;;5058029;28;20461;-82
2024/01/07 06:03:36;;;;;;;20.00;12.30;;;1.80;99.90;;;;;;5058007;28;20479;-82
2024/01/07 06:06:03;;;;;;;16.60;12.47;;;1.70;99.90;;;;;;5057929;28;20952;-84
2024/01/07 06:08:31;;;;;;;18.03;12.03;;;1.70;99.90;;;;;;5058415;28;21071;-82
2024/01/07 06:10:58;;;;;;;16.63;11.70;;;1.80;99.90;;;;;;5058371;28;20448;-85
2024/01/07 06:13:25;;;;;;;19.23;11.80;;;1.80;99.90;;;;;;5066315;28;20488;-83
2024/01/07 06:15:53;;;;;;;17.60;11.20;;;1.80;99.90;;;;;;5058251;28;20470;-84
2024/01/07 06:18:20;;;;;;;17.40;11.33;;;1.70;99.90;;;;;;5057986;28;21165;-82
2024/01/07 06:20:47;;;;;;;16.63;11.80;;;1.80;99.90;;;;;;5050001;28;20528;-83
2024/01/07 06:23:14;;;;;;;22.20;13.90;;;1.80;99.90;;;;;;5058147;28;20472;-84
2024/01/07 06:25:43;;;;;;;21.77;11.77;;;1.80;99.90;;;;;;5060261;28;20465;-84
2024/01/07 06:28:10;;;;;;;16.90;11.67;;;1.70;99.90;;;;;;5062841;28;20532;-84
2024/01/07 06:30:37;;;;;;;19.10;12.17;;;1.70;99.90;;;;;;5055939;28;20535;-83
2024/01/07 06:33:05;;;;;;;17.07;11.67;;;1.70;99.90;;;;;;5051157;28;20989;-84
2024/01/07 06:35:31;;;;;;;21.07;14.07;;;1.70;99.90;;;;;;5055262;28;20458;-82
2024/01/07 06:37:58;;;;;;;24.53;12.67;;;1.70;99.90;;;;;;5049293;28;20454;-81
2024/01/07 06:40:25;;;;;;;19.83;13.27;;;1.60;99.90;;;;;;5057421;28;20829;-83
2024/01/07 06:42:54;;;;;;;17.23;12.43;;;1.80;99.90;;;;;;5058428;28;20574;-85
2024/01/07 06:45:20;;;;;;;18.90;12.10;;;1.80;99.90;;;;;;5064492;28;20535;-83
2024/01/07 06:47:47;;;;;;;21.57;11.73;;;1.80;99.90;;;;;;5058881;28;20540;-84
2024/01/07 06:50:14;;;;;;;17.57;11.80;;;1.80;99.90;;;;;;5059461;28;20455;-83
2024/01/07 06:52:44;;;;;;;18.90;12.83;;;1.80;99.90;;;;;;5058632;28;20491;-83
2024/01/07 06:55:10;;;;;;;15.47;10.23;;;1.80;99.90;;;;;;5057853;28;20490;-83
2024/01/07 06:57:37;;;;;;;18.80;12.70;;;1.80;99.90;;;;;;5052789;28;20456;-83
2024/01/07 07:00:07;;;;;;;22.10;13.53;;;1.70;99.90;;;;;;5055150;28;20454;-82
2024/01/07 07:02:34;;;;;;;20.23;12.13;;;1.60;99.90;;;;;;5058107;28;21028;-83
2024/01/07 07:05:01;;;;;;;16.63;11.00;;;1.60;99.90;;;;;;5058167;28;21040;-82
2024/01/07 07:07:28;;;;;;;16.80;11.40;;;1.60;99.90;;;;;;5060496;28;20456;-83
2024/01/07 07:09:55;;;;;;;23.40;13.30;;;1.60;99.90;;;;;;5057052;28;20456;-80
2024/01/07 07:12:21;;;;;;;18.20;11.60;;;1.60;99.90;;;;;;5053702;28;21002;-80
2024/01/07 07:14:48;;;;;;;16.20;11.07;;;1.80;99.90;;;;;;5055548;28;20566;-83
2024/01/07 07:17:16;;;;;;;19.20;10.97;;;1.70;99.90;;;;;;5057143;28;20554;-84
2024/01/07 07:19:43;;;;;;;14.47;10.20;;;1.70;99.90;;;;;;5060774;28;20543;-83
2024/01/07 07:22:10;;;;;;;17.90;11.20;;;1.60;99.90;;;;;;5059151;28;20927;-83
2024/01/07 07:24:41;;;;;;;13.00;9.43;;;1.60;99.90;;;;;;5065405;28;20452;-83
2024/01/07 07:27:08;;;;;;;11.67;8.03;;;2.60;99.90;;;;;;5065968;28;20457;-81
2024/01/07 07:29:35;;;;;;;10.13;7.77;;;1.60;99.90;;;;;;5056635;28;20452;-80
2024/01/07 07:32:01;;;;;;;15.20;8.90;;;1.70;99.90;;;;;;5057001;28;20475;-83
2024/01/07 07:34:29;;;;;;;13.80;8.10;;;1.70;99.90;;;;;;5065478;28;20880;-82
2024/01/07 07:36:56;;;;;;;10.33;7.20;;;1.60;99.90;;;;;;5057486;28;20470;-82
2024/01/07 07:39:23;;;;;;;11.23;8.00;;;1.60;99.90;;;;;;5057296;28;20531;-81
2024/01/07 07:41:50;;;;;;;12.53;8.43;;;1.60;99.90;;;;;;5056170;28;20473;-81
2024/01/07 07:44:17;;;;;;;12.37;8.77;;;1.40;99.90;;;;;;5056044;28;20458;-83
2024/01/07 07:46:44;;;;;;;10.00;7.50;;;1.50;99.90;;;;;;5056953;28;20499;-81
2024/01/07 07:49:11;;;;;;;10.37;7.70;;;1.40;99.90;;;;;;5056125;28;20971;-83
2024/01/07 07:51:41;;;;;;;11.77;7.60;;;1.30;99.90;;;;;;5051408;28;20448;-83
2024/01/07 07:54:07;;;;;;;10.50;8.03;;;1.40;99.90;;;;;;5047637;28;20479;-82
2024/01/07 07:56:35;;;;;;;11.30;8.23;;;1.40;99.90;;;;;;5049538;28;20953;-83
2024/01/07 07:59:05;;;;;;;14.27;7.87;;;1.40;99.90;;;;;;5049115;28;20454;-81
2024/01/07 08:01:32;;;;;;;12.43;8.67;;;1.30;99.90;;;;;;5050005;28;20463;-81
2024/01/07 08:03:59;;;;;;;14.10;8.73;;;1.30;99.90;;;;;;5050947;28;20454;-82
2024/01/07 08:06:25;;;;;;;14.50;9.50;;;1.30;99.90;;;;;;5050747;28;21030;-82
2024/01/07 08:08:54;;;;;;;11.37;8.50;;;1.30;99.90;;;;;;5054348;28;20518;-83
2024/01/07 08:11:21;;;;;;;14.40;9.23;;;;;;;;;;5048318;28;20940;-81
2024/01/07 08:13:48;;;;;;;15.50;9.17;;;1.40;99.90;;;;;;5049765;28;20502;-83
2024/01/07 08:16:15;;;;;;;14.23;9.00;;;1.40;99.90;;;;;;5049467;28;20919;-82
2024/01/07 08:18:45;;;;;;;14.50;8.30;;;1.50;99.90;;;;;;5061629;28;20474;-84
2024/01/07 08:21:12;;;;;;;12.73;8.60;;;1.40;99.90;;;;;;5059050;28;20491;-81
2024/01/07 08:23:39;;;;;;;12.37;8.63;;;1.10;99.90;;;;;;5058140;28;20478;-83
2024/01/07 08:26:07;;;;;;;16.90;10.30;;;1.30;99.90;;;;;;5060474;28;20462;-82
2024/01/07 08:28:34;;;;;;;12.70;8.63;;;;;;;;;;5060726;28;20535;-81
2024/01/07 08:31:01;;;;;;;16.70;9.43;;;1.30;99.90;;;;;;5060462;28;20465;-81
2024/01/07 08:33:28;;;;;;;12.37;7.80;;;1.20;99.90;;;;;;5060665;28;20438;-82
2024/01/07 08:35:55;;;;;;;16.60;11.60;;;1.20;99.90;;;;;;5060507;28;20487;-81
2024/01/07 08:38:22;;;;;;;12.30;7.90;;;1.40;99.90;;;;;;5061560;28;20483;-81
2024/01/07 08:40:49;;;;;;;14.70;9.43;;;1.30;99.90;;;;;;5062632;28;20543;-82
2024/01/07 08:43:17;;;;;;;11.57;7.67;;;1.30;99.90;;;;;;5068816;28;20475;-82
2024/01/07 08:45:44;;;;;;;12.73;8.37;;;1.30;99.90;;;;;;5069497;28;20448;-82
2024/01/07 08:48:12;;;;;;;15.30;9.87;;;1.40;99.90;;;;;;5069460;28;20458;-80
2024/01/07 08:50:39;;;;;;;10.90;7.30;;;1.30;99.90;;;;;;5070589;28;20463;-83
2024/01/07 08:53:06;;;;;;;11.07;7.70;;;;;;;;;;5065366;28;20442;-83
2024/01/07 08:55:33;;;;;;;14.47;9.07;;;0.80;99.90;;;;;;5064338;28;20570;-81
2024/01/07 08:58:00;;;;;;;10.67;7.60;;;1.40;99.90;;;;;;5059383;28;20963;-81
2024/01/07 09:00:31;;;;;;;10.77;7.37;;;1.10;99.90;;;;;;5062207;28;20530;-82
2024/01/07 09:02:59;;;;;;;11.37;7.20;;;1.30;99.90;;;;;;5066972;28;20513;-82
2024/01/07 09:05:26;;;;;;;10.67;7.07;;;1.10;99.90;;;;;;5065082;28;20510;-82
2024/01/07 09:07:53;;;;;;;10.33;7.10;;;;;;;;;;5066131;28;20799;-82
2024/01/07 09:10:21;;;;;;;10.77;8.10;;;1.40;99.90;;;;;;5064337;28;20555;-81
2024/01/07 09:12:49;;;;;;;13.10;7.30;;;1.40;99.90;;;;;;5065534;28;20524;-83
2024/01/07 09:15:19;;;;;;;8.10;5.90;;;1.30;99.90;;;;;;5065264;28;20482;-82
2024/01/07 09:17:48;;;;;;;12.10;8.03;;;1.40;99.90;;;;;;5052918;28;20451;-81
2024/01/07 09:20:15;;;;;;;10.17;7.50;;;1.40;99.90;;;;;;5063491;28;20504;-82
2024/01/07 09:22:43;;;;;;;10.70;7.80;;;1.40;99.90;;;;;;5060952;28;20487;-82
2024/01/07 09:25:11;;;;;;;10.87;7.47;;;1.10;99.90;;;;;;5060056;28;20827;-81
2024/01/07 09:27:38;;;;;;;12.73;8.53;;;;;;;;;;5059732;28;20847;-82
2024/01/07 09:30:05;;;;;;;11.57;8.00;;;1.50;99.90;;;;;;5058364;28;20524;-82
2024/01/07 09:32:32;;;;;;;12.20;8.87;;;1.20;99.90;;;;;;5057143;28;20477;-82
2024/01/07 09:35:00;;;;;;;9.20;6.53;;;1.30;99.90;;;;;;5053393;28;21075;-82
2024/01/07 09:37:31;;;;;;;8.40;7.23;;;1.80;99.90;;;;;;5052973;28;20426;-82
2024/01/07 09:39:58;;;;;;;10.13;6.77;;;1.40;99.90;;;;;;5052021;28;20436;-81
2024/01/07 09:42:25;;;;;;;9.77;7.03;;;;;;;;;;5053016;28;20472;-82
2024/01/07 09:44:52;;;;;;;11.53;7.67;;;1.40;99.90;;;;;;5067323;28;20453;-82
2024/01/07 09:47:20;;;;;;;14.20;8.40;;;;;;;;;;5067778;28;20540;-82
2024/01/07 09:49:47;;;;;;;13.87;8.70;;;1.30;99.90;;;;;;5058731;28;20895;-82
2024/01/07 09:52:17;;;;;;;13.77;7.50;;;;;;;;;;5068205;28;20547;-82
2024/01/07 09:54:49;;;;;;;10.60;6.30;;;1.50;99.90;;;;;;5059313;28;20514;-82
2024/01/07 09:57:17;;;;;;;13.03;7.13;;;;;;;;;;5059268;28;20462;-82
2024/01/07 09:59:44;;;;;;;10.70;6.43;;;;;;;;;;5067172;28;20487;-80
2024/01/07 10:02:11;;;;;;;11.63;6.20;;;;;;;;;;5058582;28;21070;-82
2024/01/07 10:04:39;;;;;;;10.77;6.87;;;;;;;;;;5059095;28;20479;-82
2024/01/07 10:07:06;;;;;;;8.70;6.40;;;;;;;;;;5059435;28;20547;-83
2024/01/07 10:09:35;;;;;;;12.30;6.70;;;1.30;99.90;;;;;;5050619;28;20998;-80
2024/01/07 10:12:02;;;;;;;7.73;6.00;;;;;;;;;;5050809;28;20520;-82
2024/01/07 10:14:30;;;;;;;10.53;6.60;;;1.40;99.90;;;;;;5051745;28;20462;-82
2024/01/07 10:16:58;;;;;;;9.20;6.50;;;1.30;99.90;;;;;;5049655;28;20487;-80
2024/01/07 10:19:25;;;;;;;8.37;5.23;;;1.70;99.90;;;;;;5046791;28;20484;-83
2024/01/07 10:22:01;;;;;;;11.87;6.30;;;1.40;99.90;;;;;;5047633;28;20492;-83
2024/01/07 10:24:39;;;;;;;8.00;5.43;;;1.40;99.90;;;;;;5059603;28;20524;-82
2024/01/07 10:27:06;;;;;;;7.73;5.70;;;1.30;99.90;;;;;;5057689;28;20483;-82
2024/01/07 10:29:33;;;;;;;11.30;6.20;;;;;;;;;;5056747;28;20533;-81
2024/01/07 10:32:04;;;;;;;26.57;12.77;;;1.30;99.90;;;;;;5058334;28;20471;-82
2024/01/07 10:34:33;;;;;;;7.50;5.70;;;1.40;99.90;;;;;;5057994;28;20486;-82
2024/01/07 10:37:01;;;;;;;10.47;6.67;;;1.50;99.90;;;;;;5058394;28;20546;-82
2024/01/07 10:39:28;;;;;;;9.03;5.53;;;1.30;99.90;;;;;;5066935;28;20913;-82
2024/01/07 10:41:58;;;;;;;8.77;4.73;;;1.20;99.90;;;;;;5059617;28;20911;-81
2024/01/07 10:44:26;;;;;;;11.60;5.40;;;1.10;99.90;;;;;;5058812;28;20451;-83
2024/01/07 10:46:56;;;;;;;7.17;4.90;;;1.00;99.90;;;;;;5057745;28;20535;-82
2024/01/07 10:49:26;;;;;;;6.07;4.37;;;0.50;99.90;;;;;;5069731;28;20452;-82
2024/01/07 10:52:04;;;;;;;9.27;5.00;;;1.20;99.90;;;;;;5060356;28;20480;-82
2024/01/07 10:54:33;;;;;;;6.80;4.87;;;1.00;99.90;;;;;;5060230;28;20460;-83
2024/01/07 10:57:08;;;;;;;10.83;3.70;;;1.30;99.90;;;;;;5062114;28;20448;-81
2024/01/07 10:59:37;;;;;;;7.63;4.30;;;1.40;99.90;;;;;;5059688;28;20478;-81
2024/01/07 11:02:04;;;;;;;5.00;3.23;;;1.40;99.90;;;;;;5060383;28;20550;-82
2024/01/07 11:04:44;;;;;;;6.50;3.97;;;1.30;99.90;;;;;;5058918;28;20455;-82
2024/01/07 11:07:19;;;;;;;6.27;4.37;;;1.40;99.90;;;;;;5061075;28;20452;-82
2024/01/07 11:09:55;;;;;;;10.73;4.70;;;1.40;99.90;;;;;;5061192;28;20531;-81
2024/01/07 11:12:23;;;;;;;7.83;4.57;;;1.40;99.90;;;;;;5060065;28;20554;-81
2024/01/07 11:14:53;;;;;;;7.43;3.53;;;;;;;;;;5060732;28;20587;-82
2024/01/07 11:17:42;;;;;;;7.50;4.63;;;1.50;99.90;;;;;;5060151;28;20570;-82
2024/01/07 11:20:26;;;;;;;6.30;4.43;;;1.50;99.90;;;;;;5060019;28;20452;-80
2024/01/07 11:22:53;;;;;;;4.67;2.83;;;1.40;99.90;;;;;;5059557;28;20484;-82
2024/01/07 11:25:31;;;;;;;6.13;3.93;;;1.30;99.90;;;;;;5060862;28;20507;-82
2024/01/07 11:28:01;;;;;;;7.33;4.40;;;1.40;99.90;;;;;;5060527;28;20476;-80
2024/01/07 11:30:29;;;;;;;6.50;3.80;;;2.00;99.90;;;;;;5059527;28;20527;-82
2024/01/07 11:32:59;;;;;;;4.47;3.00;;;1.60;99.90;;;;;;5063405;28;20469;-80
2024/01/07 11:35:56;;;;;;;4.47;3.33;;;1.40;99.90;;;;;;5067602;28;21019;-81
2024/01/07 11:38:22;;;;;;;6.33;3.00;;;1.50;99.90;;;;;;5070562;28;20483;-81
2024/01/07 11:40:51;;;;;;;5.73;3.07;;;1.40;99.90;;;;;;5069360;28;20433;-81
2024/01/07 11:43:19;;;;;;;3.50;2.80;;;1.30;99.90;;;;;;5052786;28;20548;-81
2024/01/07 11:45:47;;;;;;;5.03;2.77;;;1.20;99.90;;;;;;5052304;28;20466;-81
2024/01/07 11:48:14;;;;;;;4.67;3.00;;;1.40;99.90;;;;;;5052342;28;20443;-80
2024/01/07 11:50:41;;;;;;;7.47;3.07;;;1.40;99.90;;;;;;5063234;28;20507;-81
2024/01/07 11:53:08;;;;;;;6.27;3.60;;;;;;;;;;5059482;28;20475;-80
2024/01/07 11:55:36;;;;;;;5.33;3.97;;;1.20;99.90;;;;;;5068598;28;20558;-81
2024/01/07 11:58:03;;;;;;;5.23;2.97;;;1.10;99.90;;;;;;5059435;28;20840;-82
2024/01/07 12:00:34;;;;;;;4.47;2.50;;;1.30;99.90;;;;;;5058642;28;20482;-79
2024/01/07 12:03:01;;;;;;;4.30;2.93;;;1.20;99.90;;;;;;5066874;28;20482;-82
2024/01/07 12:05:28;;;;;;;4.50;2.88;;;1.10;99.90;;;;;;5061794;28;20518;-81
2024/01/07 12:07:55;;;;;;;4.30;3.20;;;1.40;99.90;;;;;;5052742;28;20236;-82
2024/01/07 12:10:22;;;;;;;4.27;2.13;;;1.00;99.90;;;;;;5057130;28;20907;-80
2024/01/07 12:12:50;;;;;;;5.47;2.90;;;1.50;99.90;;;;;;5058914;28;21152;-81
2024/01/07 12:15:18;;;;;;;5.50;3.03;;;1.30;99.90;;;;;;5059627;28;20487;-81
2024/01/07 12:17:56;;;;;;;5.40;3.17;;;1.40;99.90;;;;;;5057971;28;20459;-81
2024/01/07 12:20:23;;;;;;;3.83;2.90;;;1.10;99.90;;;;;;5059139;28;20459;-82
2024/01/07 12:22:50;;;;;;;5.37;3.00;;;1.20;99.90;;;;;;5058851;28;20512;-81
2024/01/07 12:25:23;;;;;;;4.37;3.10;;;3.30;99.90;;;;;;5058441;28;20448;-79
2024/01/07 12:27:52;;;;;;;3.10;2.30;;;1.20;99.90;;;;;;5058782;28;20447;-81
2024/01/07 12:30:20;;;;;;;4.77;3.00;;;0.80;99.90;;;;;;5058231;28;20512;-81
2024/01/07 12:32:48;;;;;;;3.53;2.20;;;0.80;99.90;;;;;;5061509;28;20495;-81
2024/01/07 12:35:15;;;;;;;5.53;3.33;;;1.00;99.90;;;;;;5062582;28;20308;-80
2024/01/07 12:37:44;;;;;;;3.90;2.63;;;1.10;99.90;;;;;;5054817;28;20650;-82
2024/01/07 12:40:13;;;;;;;3.33;2.37;;;1.20;99.90;;;;;;5057368;28;20444;-82
2024/01/07 12:42:44;;;;;;;4.17;3.10;;;1.00;99.90;;;;;;5057379;28;20927;-83
2024/01/07 12:45:13;;;;;;;5.37;2.33;;;1.00;99.90;;;;;;5051675;28;20453;-81
2024/01/07 12:47:40;;;;;;;4.03;2.50;;;0.90;99.90;;;;;;5053185;28;20487;-83
2024/01/07 12:50:10;;;;;;;5.40;2.80;;;0.90;99.90;;;;;;5059916;28;20996;-81